createdAt,value
2023-02-24T00:04:52.638Z,100.00
2023-02-24T00:09:56.887Z,100.00
2023-02-24T00:14:59.953Z,100.00
2023-02-24T00:20:05.634Z,100.00
2023-02-24T00:25:12.274Z,99.90
2023-02-24T00:30:16.446Z,98.29
2023-02-24T00:35:19.883Z,99.18
2023-02-24T00:40:25.069Z,99.16
2023-02-24T00:45:30.923Z,100.00
2023-02-24T00:50:33.975Z,100.00
2023-02-24T00:55:38.460Z,100.00
2023-02-24T01:00:43.498Z,99.97
2023-02-24T01:05:46.495Z,100.00
2023-02-24T01:11:19.178Z,99.43
2023-02-24T01:16:22.483Z,98.92
2023-02-24T01:21:25.529Z,98.69
2023-02-24T01:26:30.917Z,98.70
2023-02-24T01:31:33.926Z,98.25
2023-02-24T01:36:36.854Z,99.95
2023-02-24T01:41:43.807Z,99.93
2023-02-24T01:46:49.680Z,99.59
2023-02-24T01:51:57.374Z,98.62
2023-02-24T01:57:01.787Z,98.56
2023-02-24T02:02:08.962Z,97.27
2023-02-24T02:07:13.742Z,97.27
2023-02-24T02:12:18.069Z,96.99
2023-02-24T02:17:30.435Z,97.00
2023-02-24T02:23:06.692Z,97.54
2023-02-24T02:28:45.460Z,97.21
2023-02-24T02:34:13.861Z,97.59
2023-02-24T02:39:27.337Z,98.16
2023-02-24T02:44:39.754Z,99.01
2023-02-24T02:49:48.965Z,98.61
2023-02-24T02:54:57.708Z,97.79
2023-02-24T03:00:12.334Z,99.49
2023-02-24T03:05:21.474Z,98.70
2023-02-24T03:10:28.881Z,99.12
2023-02-24T03:15:34.185Z,99.65
2023-02-24T03:20:43.023Z,99.93
2023-02-24T03:25:53.361Z,100.00
2023-02-24T03:31:05.063Z,100.00
2023-02-24T03:36:09.946Z,100.00
2023-02-24T03:41:13.527Z,100.00
2023-02-24T03:46:17.996Z,99.92
2023-02-24T03:51:24.332Z,100.00
2023-02-24T03:56:40.472Z,100.00
2023-02-24T04:01:57.929Z,100.00
2023-02-24T04:07:12.997Z,100.00
2023-02-24T04:12:20.885Z,100.00
2023-02-24T04:17:33.175Z,100.00
2023-02-24T04:22:41.521Z,100.00
2023-02-24T04:27:47.318Z,100.00
2023-02-24T04:32:53.422Z,100.00
2023-02-24T04:37:58.306Z,100.00
2023-02-24T04:43:03.083Z,100.00
2023-02-24T04:48:12.107Z,98.68
2023-02-24T04:53:18.102Z,97.15
2023-02-24T04:58:22.592Z,96.66
2023-02-24T05:03:28.492Z,97.00
2023-02-24T05:08:34.161Z,96.26
2023-02-24T05:13:37.694Z,97.14
2023-02-24T05:18:42.667Z,96.74
2023-02-24T05:23:47.938Z,96.78
2023-02-24T05:28:52.290Z,97.98
2023-02-24T05:33:59.191Z,98.38
2023-02-24T05:39:07.443Z,98.78
2023-02-24T05:44:15.836Z,100.00
2023-02-24T05:49:23.432Z,98.98
2023-02-24T05:54:30.667Z,98.14
2023-02-24T05:59:34.459Z,99.08
2023-02-24T06:04:46.532Z,99.00
2023-02-24T06:09:54.046Z,99.77
2023-02-24T06:14:58.101Z,98.98
2023-02-24T06:20:00.988Z,100.00
2023-02-24T06:25:06.666Z,100.00
2023-02-24T06:30:11.555Z,98.83
2023-02-24T06:35:14.567Z,99.88
2023-02-24T06:40:19.940Z,100.00
2023-02-24T06:45:24.221Z,100.00
2023-02-24T06:50:27.167Z,100.00
2023-02-24T06:55:35.543Z,100.00
2023-02-24T07:00:39.153Z,98.98
2023-02-24T07:05:49.304Z,98.33
2023-02-24T07:10:58.296Z,98.53
2023-02-24T07:16:06.847Z,96.54
2023-02-24T07:21:11.652Z,94.53
2023-02-24T07:26:18.451Z,96.15
2023-02-24T07:31:24.265Z,95.56
2023-02-24T07:36:30.289Z,94.03
2023-02-24T07:41:37.113Z,92.15
2023-02-24T07:46:40.774Z,92.71
2023-02-24T07:51:43.806Z,92.20
2023-02-24T07:56:56.252Z,92.83
2023-02-24T08:02:00.632Z,95.55
2023-02-24T08:07:05.242Z,93.60
2023-02-24T08:12:09.765Z,92.10
2023-02-24T08:17:19.842Z,93.43
2023-02-24T08:22:24.202Z,92.05
2023-02-24T08:27:30.674Z,90.97
2023-02-24T08:32:37.213Z,89.96
2023-02-24T08:37:40.666Z,89.83
2023-02-24T08:42:45.094Z,88.46
2023-02-24T08:47:48.582Z,88.50
2023-02-24T08:52:51.686Z,88.24
2023-02-24T08:57:56.318Z,87.90
2023-02-24T09:02:59.200Z,87.69
2023-02-24T09:08:02.259Z,87.42
2023-02-24T09:13:08.688Z,88.79
2023-02-24T09:18:14.373Z,88.76
2023-02-24T09:23:20.944Z,88.48
2023-02-24T09:28:26.857Z,89.42
2023-02-24T09:33:39.106Z,89.07
2023-02-24T09:39:02.359Z,90.08
2023-02-24T09:44:18.713Z,89.39
2023-02-24T09:49:25.245Z,86.45
2023-02-24T09:54:32.835Z,88.04
2023-02-24T10:00:01.432Z,86.45
2023-02-24T10:05:38.615Z,89.78
2023-02-24T10:11:00.889Z,94.69
2023-02-24T10:16:10.570Z,91.59
2023-02-24T10:21:30.583Z,89.73
2023-02-24T10:26:51.265Z,87.93
2023-02-24T10:32:23.647Z,87.92
2023-02-24T10:37:29.533Z,86.26
2023-02-24T10:42:34.492Z,86.25
2023-02-24T10:47:44.383Z,86.09
2023-02-24T10:53:11.287Z,85.80
2023-02-24T10:58:27.840Z,87.84
2023-02-24T11:03:42.022Z,85.45
2023-02-24T11:08:54.640Z,87.01
2023-02-24T11:14:16.918Z,88.24
2023-02-24T11:19:21.674Z,87.23
2023-02-24T11:24:24.900Z,84.94
2023-02-24T11:29:42.171Z,84.80
2023-02-24T11:34:53.817Z,84.76
2023-02-24T11:40:01.609Z,82.38
2023-02-24T11:45:13.865Z,81.68
2023-02-24T11:50:32.063Z,84.39
2023-02-24T11:55:42.501Z,85.27
2023-02-24T12:01:07.526Z,82.98
2023-02-24T12:06:18.395Z,79.58
2023-02-24T12:11:30.430Z,76.98
2023-02-24T12:16:38.447Z,79.03
2023-02-24T12:21:46.076Z,79.56
2023-02-24T12:26:59.510Z,78.86
2023-02-24T12:32:11.382Z,76.86
2023-02-24T12:37:40.378Z,78.55
2023-02-24T12:42:52.258Z,79.74
2023-02-24T12:48:06.442Z,80.28
2023-02-24T12:53:21.696Z,81.05
2023-02-24T12:58:29.933Z,83.99
2023-02-24T13:03:46.245Z,83.08
2023-02-24T13:08:59.487Z,82.69
2023-02-24T13:14:09.559Z,83.66
2023-02-24T13:19:21.510Z,84.61
2023-02-24T13:24:26.549Z,83.21
2023-02-24T13:29:29.568Z,82.83
2023-02-24T13:34:35.028Z,82.18
2023-02-24T13:39:41.964Z,83.01
2023-02-24T13:44:50.099Z,83.12
2023-02-24T13:50:04.762Z,83.39
2023-02-24T13:55:22.410Z,82.45
2023-02-24T14:00:32.698Z,82.38
2023-02-24T14:05:37.171Z,82.46
2023-02-24T14:10:46.819Z,83.72
2023-02-24T14:15:50.094Z,84.16
2023-02-24T14:20:54.515Z,83.89
2023-02-24T14:26:00.863Z,85.04
2023-02-24T14:31:08.130Z,84.66
2023-02-24T14:36:17.644Z,84.48
2023-02-24T14:41:24.801Z,84.33
2023-02-24T14:46:27.855Z,81.90
2023-02-24T14:51:35.677Z,81.78
2023-02-24T14:56:41.539Z,80.37
2023-02-24T15:01:48.695Z,79.57
2023-02-24T15:06:51.768Z,77.87
2023-02-24T15:11:56.894Z,77.92
2023-02-24T15:17:02.331Z,78.83
2023-02-24T15:22:05.956Z,79.80
2023-02-24T15:27:27.053Z,78.47
2023-02-24T15:32:35.377Z,78.45
2023-02-24T15:37:42.688Z,79.43
2023-02-24T15:42:53.255Z,79.90
2023-02-24T15:47:57.820Z,80.09
2023-02-24T15:53:04.873Z,80.67
2023-02-24T15:58:17.167Z,81.28
2023-02-24T16:03:20.616Z,82.23
2023-02-24T16:08:23.633Z,85.73
2023-02-24T16:13:28.560Z,88.61
2023-02-24T16:18:31.569Z,86.66
2023-02-24T16:23:40.285Z,87.28
2023-02-24T16:28:45.227Z,87.48
2023-02-24T16:33:54.562Z,87.41
2023-02-24T16:38:58.771Z,88.26
2023-02-24T16:44:03.902Z,88.62
2023-02-24T16:49:11.769Z,89.96
2023-02-24T16:54:14.748Z,88.67
2023-02-24T16:59:19.262Z,89.42
2023-02-24T17:04:22.712Z,88.89
2023-02-24T17:09:28.691Z,89.74
2023-02-24T17:14:32.999Z,89.42
2023-02-24T17:19:35.987Z,89.69
2023-02-24T17:24:39.148Z,90.14
2023-02-24T17:29:43.600Z,90.91
2023-02-24T17:34:46.681Z,90.45
2023-02-24T17:39:50.127Z,91.62
2023-02-24T17:44:54.484Z,91.15
2023-02-24T17:49:57.462Z,91.57
2023-02-24T17:55:01.216Z,91.57
2023-02-24T18:00:07.862Z,91.52
2023-02-24T18:05:16.704Z,92.34
2023-02-24T18:10:20.070Z,92.12
2023-02-24T18:15:25.621Z,92.08
2023-02-24T18:20:29.740Z,92.38
2023-02-24T18:25:36.139Z,92.29
2023-02-24T18:30:41.058Z,93.00
2023-02-24T18:35:44.470Z,92.90
2023-02-24T18:40:47.359Z,92.00
2023-02-24T18:45:56.797Z,92.84
2023-02-24T18:51:01.558Z,92.51
2023-02-24T18:56:06.711Z,93.72
2023-02-24T19:01:15.910Z,93.17
2023-02-24T19:06:21.542Z,92.25
2023-02-24T19:11:25.775Z,93.33
2023-02-24T19:16:30.858Z,93.51
2023-02-24T19:21:34.526Z,93.00
2023-02-24T19:26:38.662Z,92.83
2023-02-24T19:31:43.062Z,93.43
2023-02-24T19:36:46.924Z,93.00
2023-02-24T19:41:50.220Z,92.53
2023-02-24T19:46:55.306Z,93.08
2023-02-24T19:51:59.212Z,93.44
2023-02-24T19:57:02.188Z,93.44
2023-02-24T20:02:06.798Z,92.95
2023-02-24T20:07:09.957Z,94.04
2023-02-24T20:12:13.106Z,93.47
2023-02-24T20:17:18.340Z,93.52
2023-02-24T20:22:21.653Z,94.01
2023-02-24T20:27:24.647Z,95.80
2023-02-24T20:32:29.483Z,94.72
2023-02-24T20:37:32.575Z,94.79
2023-02-24T20:42:35.834Z,94.16
2023-02-24T20:47:40.519Z,93.79
2023-02-24T20:52:43.753Z,94.72
2023-02-24T20:57:47.042Z,93.86
2023-02-24T21:02:51.931Z,94.20
2023-02-24T21:07:55.303Z,94.59
2023-02-24T21:12:58.396Z,93.69
2023-02-24T21:18:02.872Z,94.00
2023-02-24T21:23:09.534Z,94.26
2023-02-24T21:28:12.485Z,93.43
2023-02-24T21:33:18.680Z,93.02
2023-02-24T21:38:21.598Z,94.00
2023-02-24T21:43:26.760Z,93.51
2023-02-24T21:48:31.209Z,92.80
2023-02-24T21:53:35.622Z,92.55
2023-02-24T21:58:40.366Z,93.06
2023-02-24T22:03:46.016Z,92.83
2023-02-24T22:08:48.964Z,92.46
2023-02-24T22:13:51.881Z,92.41
2023-02-24T22:18:56.777Z,91.52
2023-02-24T22:24:01.080Z,91.98
2023-02-24T22:29:04.975Z,91.10
2023-02-24T22:34:09.310Z,91.40
2023-02-24T22:39:16.402Z,92.36
2023-02-24T22:44:21.096Z,92.35
2023-02-24T22:49:25.311Z,93.79
2023-02-24T22:54:28.164Z,94.11
2023-02-24T22:59:31.149Z,94.06
2023-02-24T23:04:35.448Z,94.19
2023-02-24T23:09:38.370Z,94.32
2023-02-24T23:14:41.281Z,94.98
2023-02-24T23:19:46.622Z,95.47
2023-02-24T23:24:50.863Z,95.76
2023-02-24T23:29:53.695Z,95.72
2023-02-24T23:34:57.950Z,95.03
2023-02-24T23:40:00.889Z,95.22
2023-02-24T23:45:04.467Z,94.21
2023-02-24T23:50:10.312Z,95.44
2023-02-24T23:55:13.746Z,95.01
